Time;durP1;ratioP1;P1;durP2;ratioP2;P2;SDS_P1;SDS_P2;PMS_P1;PMS_P2;Temp;Humidity;BMP_temperature;BMP_pressure;BME280_temperature;BME280_humidity;BME280_pressure;Samples;Min_cycle;Max_cycle;Signal;HPM_P1;HPM_P2
2022/12/31 00:01:09;;;;;;;3.50;2.50;;;;;;;11.38;100.00;100302.91;4957525;29;20042;-77
2022/12/31 00:03:34;;;;;;;3.83;2.58;;;;;;;11.38;100.00;100304.69;4939718;29;20039;-76
2022/12/31 00:05:59;;;;;;;4.20;2.63;;;;;;;11.37;100.00;100301.28;4957174;29;20380;-77
2022/12/31 00:08:25;;;;;;;4.30;2.40;;;;;;;11.37;100.00;100298.69;4957311;29;20031;-77
2022/12/31 00:10:50;;;;;;;4.30;2.70;;;;;;;11.32;100.00;100289.63;4957412;29;20051;-77
2022/12/31 00:13:16;;;;;;;3.75;2.75;;;;;;;11.36;100.00;100296.22;4957275;29;20027;-76
2022/12/31 00:15:42;;;;;;;3.53;2.67;;;;;;;11.36;100.00;100307.38;4957199;29;20115;-77
2022/12/31 00:18:08;;;;;;;4.22;2.90;;;;;;;11.35;100.00;100300.56;4956790;29;20039;-77
2022/12/31 00:20:33;;;;;;;4.20;2.63;;;;;;;11.32;100.00;100298.22;4957022;29;20126;-78
2022/12/31 00:22:58;;;;;;;3.97;2.70;;;;;;;11.35;100.00;100295.41;4957104;29;20055;-77
2022/12/31 00:25:25;;;;;;;4.78;2.92;;;;;;;11.32;100.00;100289.63;4956813;29;20023;-77
2022/12/31 00:27:50;;;;;;;5.60;3.28;;;;;;;11.18;100.00;100268.22;4957157;28;20030;-76
2022/12/31 00:30:15;;;;;;;6.68;3.28;;;;;;;11.36;100.00;100304.78;4939194;29;20039;-75
2022/12/31 00:32:41;;;;;;;6.75;3.30;;;;;;;11.36;100.00;100299.63;4956947;29;20134;-76
2022/12/31 00:35:07;;;;;;;5.90;3.65;;;;;;;11.40;100.00;100295.03;4957095;29;20028;-75
2022/12/31 00:37:32;;;;;;;4.35;3.25;;;;;;;11.40;100.00;100292.44;4957112;29;20106;-77
2022/12/31 00:39:57;;;;;;;4.97;3.15;;;;;;;11.38;100.00;100284.81;4956907;29;20033;-77
2022/12/31 00:42:23;;;;;;;4.95;3.13;;;;;;;11.37;100.00;100284.94;4939227;29;20071;-77
2022/12/31 00:44:48;;;;;;;4.80;3.25;;;;;;;11.36;100.00;100284.13;4956934;29;20106;-76
2022/12/31 00:47:13;;;;;;;4.72;3.63;;;;;;;11.36;100.00;100285.88;4956676;29;20036;-76
2022/12/31 00:49:39;;;;;;;6.40;4.07;;;;;;;11.20;100.00;100257.75;4956635;29;20034;-76
2022/12/31 00:52:04;;;;;;;5.97;3.35;;;;;;;11.35;100.00;100279.06;4956716;29;20102;-76
2022/12/31 00:54:29;;;;;;;6.45;4.10;;;;;;;11.33;100.00;100286.13;4956715;29;20415;-75
2022/12/31 00:56:55;;;;;;;6.30;3.42;;;;;;;11.32;100.00;100274.97;4956525;29;20039;-76
2022/12/31 00:59:20;;;;;;;4.55;3.30;;;;;;;11.30;100.00;100275.97;4956498;29;20167;-76
2022/12/31 01:01:46;;;;;;;5.80;4.07;;;;;;;11.23;100.00;100272.22;4956273;29;20039;-75
2022/12/31 01:04:14;;;;;;;5.75;3.83;;;;;;;11.32;100.00;100281.88;4956552;29;20082;-75
2022/12/31 01:06:41;;;;;;;6.50;3.85;;;;;;;11.32;100.00;100272.38;4956636;29;20035;-75
2022/12/31 01:09:07;;;;;;;5.38;3.70;;;;;;;11.38;100.00;100268.47;4956413;29;20028;-75
2022/12/31 01:11:32;;;;;;;5.90;3.95;;;;;;;11.23;100.00;100248.97;4956338;29;20154;-76
2022/12/31 01:14:01;;;;;;;5.95;3.67;;;;;;;11.35;100.00;100263.56;4939017;29;20030;-76
2022/12/31 01:16:38;;;;;;;5.25;3.10;;;;;;;11.35;100.00;100260.97;4956288;29;20035;-76
2022/12/31 01:19:07;;;;;;;3.80;2.60;;;;;;;11.35;100.00;100245.47;4956204;29;20039;-76
2022/12/31 01:21:34;;;;;;;4.38;2.80;;;;;;;11.33;100.00;100240.41;4956257;29;20074;-76
2022/12/31 01:23:59;;;;;;;4.82;2.60;;;;;;;11.33;100.00;100255.91;4955972;29;20027;-76
2022/12/31 01:26:25;;;;;;;3.60;2.40;;;;;;;11.12;100.00;100232.50;4955893;29;20043;-78
2022/12/31 01:28:50;;;;;;;5.28;2.50;;;;;;;11.23;100.00;100254.13;4956127;29;20062;-79
2022/12/31 01:31:18;;;;;;;5.15;2.28;;;;;;;11.24;100.00;100258.38;4955979;29;20027;-77
2022/12/31 01:33:44;;;;;;;2.85;1.90;;;;;;;11.17;100.00;100245.88;4956012;29;20041;-79
2022/12/31 01:36:15;;;;;;;2.47;1.80;;;;;;;11.26;100.00;100272.00;4955608;29;20067;-79
2022/12/31 01:38:41;;;;;;;2.78;1.73;;;;;;;11.24;100.00;100266.94;4955853;29;20031;-79
2022/12/31 01:41:13;;;;;;;2.97;1.40;;;;;;;11.27;100.00;100271.06;4955233;28;20042;-80
2022/12/31 01:43:48;;;;;;;2.65;1.45;;;;;;;11.30;100.00;100284.56;4955905;29;20055;-80
2022/12/31 01:46:23;;;;;;;3.22;1.65;;;;;;;11.29;100.00;100285.50;4955043;29;20127;-80
2022/12/31 01:48:52;;;;;;;3.53;1.60;;;;;;;11.22;100.00;100265.41;4955832;29;20027;-79
2022/12/31 01:51:19;;;;;;;3.13;1.52;;;;;;;11.29;100.00;100293.25;4955536;29;20082;-78
2022/12/31 01:53:45;;;;;;;2.63;1.67;;;;;;;11.15;100.00;100288.31;4955400;29;20475;-78
2022/12/31 01:56:10;;;;;;;2.10;1.40;;;;;;;11.29;100.00;100333.78;4955504;29;20035;-76
2022/12/31 01:58:40;;;;;;;2.85;1.55;;;;;;;11.27;100.00;100343.44;4955502;29;20038;-76
2022/12/31 02:01:07;;;;;;;1.73;1.23;;;;;;;11.29;100.00;100382.91;4953719;29;20039;-76
2022/12/31 02:03:33;;;;;;;4.47;1.70;;;;;;;11.17;100.00;100369.94;4955455;29;20049;-77
2022/12/31 02:06:07;;;;;;;1.58;1.20;;;;;;;11.26;100.00;100339.19;4955260;29;20102;-76
2022/12/31 02:08:34;;;;;;;2.00;0.90;;;;;;;11.18;100.00;100303.56;4955416;29;20086;-75
2022/12/31 02:11:00;;;;;;;1.67;1.00;;;;;;;10.97;100.00;100274.97;4955327;29;20110;-76
2022/12/31 02:13:25;;;;;;;1.55;0.90;;;;;;;10.83;100.00;100263.06;4955374;29;20122;-76
2022/12/31 02:16:18;;;;;;;2.55;0.77;;;;;;;10.93;100.00;100308.91;4955166;29;20046;-76
2022/12/31 02:18:55;;;;;;;1.77;1.00;;;;;;;10.94;100.00;100326.03;4954920;29;20235;-77
2022/12/31 02:21:59;;;;;;;0.85;0.80;;;;;;;10.81;100.00;100326.91;4955491;29;20031;-76
2022/12/31 02:24:27;;;;;;;0.98;0.80;;;;;;;10.86;100.00;100357.59;4877239;29;20069;-79
2022/12/31 02:26:57;;;;;;;1.38;0.60;;;;;;;10.81;100.00;100354.50;4877362;29;20045;-76
2022/12/31 02:29:50;;;;;;;0.70;0.60;;;;;;;10.77;100.00;100342.75;4877541;29;20473;-76
2022/12/31 02:32:41;;;;;;;0.95;0.70;;;;;;;10.52;100.00;100305.78;4877234;29;20123;-76
2022/12/31 02:35:13;;;;;;;1.95;0.95;;;;;;;10.75;100.00;100363.53;4877280;29;20056;-77
2022/12/31 02:37:40;;;;;;;1.98;0.85;;;;;;;10.76;100.00;100366.94;4877163;29;20028;-76
2022/12/31 02:40:12;;;;;;;1.50;0.80;;;;;;;10.75;100.00;100340.28;4877169;29;20041;-76
2022/12/31 02:42:37;;;;;;;0.90;0.82;;;;;;;10.62;100.00;100324.84;4861598;29;20035;-77
2022/12/31 02:45:03;;;;;;;1.95;1.00;;;;;;;10.74;100.00;100350.72;4877242;29;20104;-77
2022/12/31 02:47:56;;;;;;;1.77;1.00;;;;;;;10.72;100.00;100356.00;4877056;29;20493;-78
2022/12/31 02:50:33;;;;;;;2.13;1.20;;;;;;;10.43;100.00;100314.16;4877132;29;20044;-77
2022/12/31 02:53:29;;;;;;;2.17;1.20;;;;;;;10.70;100.00;100354.44;4876107;29;20037;-77
2022/12/31 02:56:09;;;;;;;2.15;1.10;;;;;;;10.68;100.00;100348.56;4877075;29;20044;-77
2022/12/31 03:04:33;;;;;;;2.42;1.23;;;;;;;10.62;100.00;100339.50;4954776;29;20037;-76
2022/12/31 03:07:07;;;;;;;3.78;1.70;;;;;;;10.36;100.00;100299.22;4954374;29;20035;-78
2022/12/31 03:09:34;;;;;;;3.40;1.35;;;;;;;10.55;100.00;100336.53;4954612;29;20459;-78
2022/12/31 03:14:45;;;;;;;4.45;1.50;;;;;;;10.60;100.00;100338.78;4954661;29;20610;-76
2022/12/31 03:17:10;;;;;;;2.33;1.33;;;;;;;10.60;100.00;100339.59;4954243;29;20113;-76
2022/12/31 03:22:28;;;;;;;1.90;1.40;;;;;;;10.59;100.00;100331.97;4954525;29;20078;-77
2022/12/31 03:27:46;;;;;;;2.90;2.10;;;;;;;10.56;100.00;100325.28;4954731;29;20050;-76
2022/12/31 03:30:14;;;;;;;2.60;1.70;;;;;;;10.48;100.00;100306.91;4954194;29;20039;-76
2022/12/31 03:32:42;;;;;;;2.97;1.90;;;;;;;10.60;100.00;100325.88;4954170;29;20127;-75
2022/12/31 03:35:09;;;;;;;3.15;2.00;;;;;;;10.54;100.00;100308.25;4954236;29;20051;-76
2022/12/31 03:37:34;;;;;;;4.40;2.10;;;;;;;10.59;100.00;100306.16;4954346;29;20043;-76
2022/12/31 03:40:00;;;;;;;2.53;1.90;;;;;;;10.55;100.00;100297.81;4954320;29;20110;-76
2022/12/31 03:42:25;;;;;;;2.60;1.98;;;;;;;10.56;100.00;100296.88;4954249;29;20063;-76
2022/12/31 03:44:50;;;;;;;5.63;2.30;;;;;;;10.50;100.00;100281.81;4954267;29;20030;-77
2022/12/31 03:47:16;;;;;;;3.38;2.10;;;;;;;10.63;100.00;100308.41;4952811;29;20057;-75
2022/12/31 03:49:41;;;;;;;2.40;1.80;;;;;;;10.65;100.00;100303.13;4953926;29;20031;-76
2022/12/31 03:52:07;;;;;;;2.45;1.85;;;;;;;10.55;100.00;100282.31;4954258;29;20054;-76
2022/12/31 03:54:33;;;;;;;4.22;2.40;;;;;;;10.69;100.00;100303.72;4937259;29;20030;-76
2022/12/31 03:56:58;;;;;;;3.65;2.60;;;;;;;10.69;100.00;100288.22;4954127;29;20403;-76
2022/12/31 03:59:23;;;;;;;4.38;2.72;;;;;;;10.70;100.00;100289.88;4954200;29;20038;-78
2022/12/31 04:01:49;;;;;;;3.70;2.40;;;;;;;10.67;100.00;100288.34;4953808;29;20028;-78
2022/12/31 04:04:14;;;;;;;3.90;2.40;;;;;;;10.56;100.00;100271.03;4955914;28;20039;-77
2022/12/31 04:06:39;;;;;;;4.22;2.60;;;;;;;10.65;100.00;100287.63;4957502;29;20471;-76
2022/12/31 04:09:05;;;;;;;5.35;2.70;;;;;;;10.70;100.00;100310.53;4957539;29;20122;-78
2022/12/31 04:11:30;;;;;;;5.20;2.60;;;;;;;10.71;100.00;100310.44;4940011;29;20027;-77
2022/12/31 04:13:58;;;;;;;3.80;2.70;;;;;;;10.66;100.00;100306.53;4957386;29;20375;-77
2022/12/31 04:16:23;;;;;;;5.10;2.90;;;;;;;10.77;100.00;100319.50;4957206;29;20050;-80
2022/12/31 04:18:48;;;;;;;4.65;3.08;;;;;;;10.78;100.00;100311.63;4957192;29;20078;-78
2022/12/31 04:21:14;;;;;;;4.60;3.00;;;;;;;10.70;100.00;100297.63;4957550;29;20518;-80
2022/12/31 04:23:39;;;;;;;4.28;2.80;;;;;;;10.78;100.00;100313.41;4957465;29;20031;-79
2022/12/31 04:26:04;;;;;;;4.63;3.15;;;;;;;10.72;100.00;100301.78;4957184;29;20086;-80
2022/12/31 04:28:29;;;;;;;5.30;3.15;;;;;;;10.58;100.00;100276.09;4957387;29;20031;-80
2022/12/31 04:30:55;;;;;;;4.03;2.78;;;;;;;10.69;100.00;100304.56;4957164;29;20080;-80
2022/12/31 04:33:20;;;;;;;5.15;3.38;;;;;;;10.63;100.00;100284.34;4956928;29;20114;-80
2022/12/31 04:35:45;;;;;;;5.32;3.45;;;;;;;10.46;100.00;100254.56;4957033;29;20110;-79
2022/12/31 04:38:11;;;;;;;4.43;2.90;;;;;;;10.70;100.00;100274.38;4956887;29;20070;-79
2022/12/31 04:41:15;;;;;;;4.53;3.10;;;;;;;10.63;100.00;100280.00;4956955;29;20027;-79
2022/12/31 04:43:21;;;;;;;4.93;2.88;;;;;;;10.63;100.00;100274.84;4957082;29;20106;-79
2022/12/31 04:45:47;;;;;;;5.38;2.97;;;;;;;10.69;100.00;100272.75;4956688;29;20115;-80
2022/12/31 04:48:12;;;;;;;4.47;2.65;;;;;;;10.68;100.00;100278.84;4956962;29;20067;-79
2022/12/31 04:50:37;;;;;;;4.78;3.00;;;;;;;10.66;100.00;100285.88;4956837;29;20074;-75
2022/12/31 04:53:02;;;;;;;5.38;2.50;;;;;;;10.54;100.00;100272.91;4956980;29;20041;-78
2022/12/31 04:55:28;;;;;;;4.30;2.65;;;;;;;10.63;100.00;100313.56;4957020;29;20086;-80
2022/12/31 04:57:53;;;;;;;4.28;2.53;;;;;;;10.67;100.00;100309.00;4956872;29;20039;-80
2022/12/31 05:00:19;;;;;;;5.05;2.78;;;;;;;10.68;100.00;100307.25;4956719;29;20042;-78
2022/12/31 05:02:44;;;;;;;3.53;2.40;;;;;;;10.60;100.00;100302.63;4956602;29;20129;-79
2022/12/31 05:05:09;;;;;;;4.68;2.83;;;;;;;10.56;100.00;100302.03;4956649;29;20027;-79
2022/12/31 05:07:34;;;;;;;5.88;2.63;;;;;;;10.69;100.00;100326.97;4956675;29;20080;-77
2022/12/31 05:10:00;;;;;;;3.95;2.60;;;;;;;10.48;100.00;100301.75;4956621;29;20100;-80
2022/12/31 05:12:25;;;;;;;4.38;2.53;;;;;;;10.64;100.00;100319.56;4956532;29;20038;-79
2022/12/31 05:14:50;;;;;;;4.60;2.60;;;;;;;10.66;100.00;100322.84;4955481;28;20027;-78
2022/12/31 05:17:16;;;;;;;5.72;2.95;;;;;;;10.71;100.00;100332.84;4956095;29;20061;-78
2022/12/31 05:19:41;;;;;;;4.80;2.75;;;;;;;10.76;100.00;100341.94;4956045;29;20395;-80
2022/12/31 05:24:51;;;;;;;4.43;2.72;;;;;;;10.70;100.00;100328.63;4956513;29;20042;-76
2022/12/31 05:27:16;;;;;;;5.00;2.65;;;;;;;10.78;100.00;100347.81;4955904;29;20039;-76
2022/12/31 05:29:41;;;;;;;5.45;2.72;;;;;;;10.77;100.00;100343.56;4956241;29;20395;-78
2022/12/31 05:32:07;;;;;;;5.35;2.83;;;;;;;10.79;100.00;100346.03;4955957;29;20082;-79
2022/12/31 05:34:32;;;;;;;5.28;2.80;;;;;;;10.74;100.00;100335.22;4955962;29;20082;-79
2022/12/31 05:36:57;;;;;;;5.75;3.00;;;;;;;10.82;100.00;100348.44;4956095;29;20034;-76
2022/12/31 05:39:23;;;;;;;5.47;3.30;;;;;;;10.83;100.00;100350.06;4938372;29;20502;-80
2022/12/31 05:41:48;;;;;;;5.47;2.95;;;;;;;10.80;100.00;100339.94;4955745;29;20435;-78
2022/12/31 05:44:13;;;;;;;5.82;3.22;;;;;;;10.78;100.00;100328.91;4955782;29;20023;-79
2022/12/31 05:46:39;;;;;;;7.60;3.70;;;;;;;10.84;100.00;100352.53;4955647;29;20031;-80
2022/12/31 05:49:04;;;;;;;6.80;3.63;;;;;;;10.70;100.00;100323.44;4955669;29;20027;-78
2022/12/31 05:51:29;;;;;;;6.50;3.33;;;;;;;10.89;100.00;100342.69;4955804;29;20035;-78
2022/12/31 05:53:54;;;;;;;5.80;3.28;;;;;;;10.90;100.00;100344.31;4955866;29;20027;-78
2022/12/31 05:56:20;;;;;;;6.43;3.15;;;;;;;11.09;100.00;100353.34;4955730;29;20027;-76
2022/12/31 05:58:45;;;;;;;5.60;2.90;;;;;;;11.09;100.00;100343.00;4955400;29;20031;-79
2022/12/31 06:01:10;;;;;;;5.28;2.72;;;;;;;11.28;100.00;100360.56;4955579;29;20035;-78
2022/12/31 06:03:36;;;;;;;7.85;3.47;;;;;;;11.24;100.00;100349.66;4955434;29;20031;-76
2022/12/31 06:06:01;;;;;;;8.43;3.55;;;;;;;11.12;100.00;100329.88;4938111;29;20038;-75
2022/12/31 06:08:26;;;;;;;8.30;4.25;;;;;;;11.24;100.00;100338.50;4955346;29;20085;-78
2022/12/31 06:10:52;;;;;;;7.78;3.67;;;;;;;11.24;100.00;100351.41;4955345;29;20046;-77
2022/12/31 06:13:17;;;;;;;7.50;3.28;;;;;;;11.38;100.00;100367.53;4937803;29;20043;-77
2022/12/31 06:15:42;;;;;;;7.75;3.50;;;;;;;11.37;100.00;100341.81;4955345;29;20058;-76
2022/12/31 06:18:07;;;;;;;7.32;3.00;;;;;;;11.42;100.00;100345.72;4954981;29;20053;-76
2022/12/31 06:20:36;;;;;;;6.13;2.70;;;;;;;11.59;100.00;100348.78;4955149;29;20059;-77
2022/12/31 06:23:01;;;;;;;5.25;2.30;;;;;;;11.59;100.00;100312.59;4955237;29;20023;-76
2022/12/31 06:25:27;;;;;;;3.78;1.75;;;;;;;11.88;100.00;100356.97;4955333;29;20352;-78
2022/12/31 06:27:52;;;;;;;3.97;1.80;;;;;;;11.81;100.00;100335.94;4955047;28;20110;-77
2022/12/31 06:30:17;;;;;;;4.32;1.50;;;;;;;11.95;100.00;100365.94;4955116;29;20058;-78
2022/12/31 06:32:43;;;;;;;2.72;1.15;;;;;;;12.01;100.00;100352.53;4955213;29;20035;-78
2022/12/31 06:35:08;;;;;;;5.75;1.63;;;;;;;12.02;100.00;100338.66;4954781;29;20027;-78
2022/12/31 06:37:34;;;;;;;2.60;1.38;;;;;;;12.14;100.00;100350.63;4955041;29;20043;-77
2022/12/31 06:39:59;;;;;;;2.53;0.90;;;;;;;12.20;100.00;100336.41;4955188;29;20435;-77
2022/12/31 06:42:29;;;;;;;3.17;0.85;;;;;;;12.24;100.00;100330.88;4955003;29;20497;-77
2022/12/31 06:44:55;;;;;;;3.38;0.70;;;;;;;12.46;100.00;100349.91;4955181;29;20447;-77
2022/12/31 06:47:21;;;;;;;2.20;0.60;;;;;;;12.30;100.00;100308.88;4954845;29;20109;-77
2022/12/31 06:49:46;;;;;;;2.58;0.68;;;;;;;12.71;100.00;100347.03;4954741;29;20027;-78
2022/12/31 06:52:11;;;;;;;4.28;1.00;;;;;;;12.82;100.00;100339.22;4954693;29;20097;-78
2022/12/31 06:54:37;;;;;;;3.60;0.75;;;;;;;13.07;100.00;100348.41;4954877;29;20057;-78
2022/12/31 06:57:03;;;;;;;5.22;0.88;;;;;;;13.15;100.00;100340.03;4954782;29;20174;-77
2022/12/31 06:59:29;;;;;;;4.80;0.70;;;;;;;13.14;100.00;100331.44;4954851;29;20031;-77
2022/12/31 07:02:03;;;;;;;4.47;0.90;;;;;;;13.24;100.00;100347.09;4937603;29;20027;-79
2022/12/31 07:04:32;;;;;;;2.35;0.75;;;;;;;13.28;100.00;100350.28;4953127;29;20379;-79
2022/12/31 07:07:10;;;;;;;2.40;0.77;;;;;;;13.17;100.00;100327.75;4954592;29;20070;-81
2022/12/31 07:09:51;;;;;;;3.13;0.80;;;;;;;13.09;100.00;100304.25;4954655;29;20383;-78
2022/12/31 07:12:35;;;;;;;3.08;0.70;;;;;;;13.43;100.00;100359.38;4954606;29;20383;-80
2022/12/31 07:15:20;;;;;;;3.22;0.90;;;;;;;13.28;100.00;100366.66;4954415;29;20094;-79
2022/12/31 07:18:05;;;;;;;4.93;1.25;;;;;;;13.06;100.00;100356.31;4954687;29;20031;-77
2022/12/31 07:20:31;;;;;;;4.68;0.70;;;;;;;12.95;100.00;100357.19;4954353;29;20145;-80
2022/12/31 07:22:56;;;;;;;2.65;0.70;;;;;;;12.87;100.00;100367.34;4954651;29;20539;-79
2022/12/31 07:25:22;;;;;;;4.80;0.93;;;;;;;12.76;100.00;100337.09;4954407;29;20027;-80
2022/12/31 07:28:45;;;;;;;4.82;0.90;;;;;;;12.79;100.00;100339.47;4937156;29;20475;-80
2022/12/31 07:31:31;;;;;;;3.33;0.85;;;;;;;12.66;100.00;100335.38;4876674;29;20037;-79
2022/12/31 07:33:59;;;;;;;4.28;1.02;;;;;;;12.78;100.00;100350.78;4876539;29;20509;-79
2022/12/31 07:37:06;;;;;;;2.72;0.80;;;;;;;12.86;100.00;100361.34;4876612;29;20048;-79
2022/12/31 07:39:44;;;;;;;3.65;0.82;;;;;;;13.03;100.00;100367.78;4823844;29;20042;-79
2022/12/31 07:42:57;;;;;;;3.05;0.90;;;;;;;13.22;100.00;100354.19;4824871;29;20438;-78
2022/12/31 07:45:44;;;;;;;5.47;1.10;;;;;;;13.30;100.00;100358.75;4775119;30;20413;-77
2022/12/31 07:48:21;;;;;;;5.15;1.10;;;;;;;13.29;100.00;100352.75;4770595;30;20476;-78
2022/12/31 07:50:47;;;;;;;3.00;0.82;;;;;;;13.30;100.00;100338.00;4775936;30;20050;-77
2022/12/31 07:53:12;;;;;;;4.95;0.82;;;;;;;13.36;100.00;100346.06;4860654;23;20104;-78
2022/12/31 07:55:38;;;;;;;4.10;1.25;;;;;;;13.41;100.00;100349.13;4957972;29;20043;-76
2022/12/31 07:58:24;;;;;;;4.13;1.10;;;;;;;13.41;100.00;100343.13;4957852;29;20043;-75
2022/12/31 08:00:51;;;;;;;5.05;1.02;;;;;;;13.23;100.00;100345.44;4957389;23;20600;-78
2022/12/31 08:03:26;;;;;;;6.28;1.40;;;;;;;13.26;100.00;100354.75;4938280;29;20024;-78
2022/12/31 08:06:05;;;;;;;3.72;0.80;;;;;;;13.24;100.00;100356.63;4938300;29;20024;-76
2022/12/31 08:08:46;;;;;;;4.90;0.98;;;;;;;13.19;100.00;100354.44;4938362;29;20036;-75
2022/12/31 08:11:39;;;;;;;4.13;1.00;;;;;;;13.17;100.00;100362.31;4938371;29;20030;-79
2022/12/31 08:14:08;;;;;;;4.70;1.10;;;;;;;13.08;100.00;100362.22;4938328;29;20023;-80
2022/12/31 08:16:34;;;;;;;3.20;1.00;;;;;;;13.06;100.00;100366.69;4921056;29;20058;-81
2022/12/31 08:19:00;;;;;;;4.28;1.05;;;;;;;13.23;100.00;100396.47;4938521;29;20142;-78
2022/12/31 08:21:47;;;;;;;5.93;1.02;;;;;;;13.26;100.00;100401.41;4920611;29;20036;-82
2022/12/31 08:24:54;;;;;;;3.35;0.85;;;;;;;13.25;100.00;100428.28;4938121;29;20042;-81
2022/12/31 08:27:25;;;;;;;4.75;1.00;;;;;;;13.29;100.00;100446.09;4938201;29;20032;-80
2022/12/31 08:29:56;;;;;;;4.88;1.50;;;;;;;13.33;100.00;100442.28;4938061;29;20035;-83
2022/12/31 08:32:28;;;;;;;6.90;1.10;;;;;;;13.21;100.00;100432.91;4938071;29;20506;-81
2022/12/31 08:35:20;;;;;;;4.70;0.90;;;;;;;13.37;100.00;100466.19;4920582;29;20058;-80
2022/12/31 08:38:07;;;;;;;1.73;0.80;;;;;;;13.42;100.00;100484.81;4860361;29;20049;-80
2022/12/31 08:40:57;;;;;;;3.13;0.90;;;;;;;13.46;100.00;100483.63;4860991;29;20030;-78
2022/12/31 08:43:36;;;;;;;3.35;0.73;;;;;;;13.60;100.00;100492.91;4860615;29;20040;-81
2022/12/31 08:46:06;;;;;;;5.45;0.95;;;;;;;13.68;100.00;100498.28;4860733;29;20037;-80
2022/12/31 08:48:37;;;;;;;3.63;0.93;;;;;;;13.75;100.00;100492.47;4860701;29;20077;-80
2022/12/31 08:51:03;;;;;;;4.78;1.00;;;;;;;13.66;100.00;100484.59;4859168;29;20033;-81
2022/12/31 08:53:29;;;;;;;4.20;0.90;;;;;;;13.61;100.00;100497.13;4844943;29;20074;-80
2022/12/31 08:56:04;;;;;;;2.33;1.05;;;;;;;13.58;100.00;100515.56;4860258;29;20048;-79
2022/12/31 08:59:05;;;;;;;1.65;0.73;;;;;;;13.48;100.00;100521.47;4860555;29;20470;-81
2022/12/31 09:01:53;;;;;;;2.35;0.57;;;;;;;13.48;100.00;100537.03;4844633;29;20271;-80
2022/12/31 09:04:36;;;;;;;4.93;1.02;;;;;;;13.49;100.00;100541.28;4787353;29;20039;-81
2022/12/31 09:07:03;;;;;;;5.85;1.20;;;;;;;13.45;100.00;100536.44;5049491;23;20051;-80
2022/12/31 09:10:21;;;;;;;6.13;1.38;;;;;;;13.55;100.00;100539.94;4956718;29;20050;-80
2022/12/31 09:12:50;;;;;;;5.68;1.20;;;;;;;13.63;100.00;100544.53;4787136;29;20050;-79
2022/12/31 09:28:14;;;;;;;2.40;1.00;;;;;;;13.89;100.00;100591.75;4236479;26;20085;-79
2022/12/31 09:31:07;;;;;;;4.78;1.00;;;;;;;13.84;100.00;100614.66;4956089;29;20035;-79
2022/12/31 09:33:41;;;;;;;7.80;1.25;;;;;;;13.62;100.00;100592.19;4955829;29;20098;-80
2022/12/31 09:36:12;;;;;;;4.68;1.42;;;;;;;13.42;100.00;100594.59;4956273;29;20035;-79
2022/12/31 09:39:03;;;;;;;4.40;1.33;;;;;;;13.26;100.00;100604.50;4955957;29;20558;-80
2022/12/31 09:41:46;;;;;;;4.55;1.60;;;;;;;13.20;100.00;100600.63;4955785;29;20082;-77
2022/12/31 09:45:08;;;;;;;4.32;1.48;;;;;;;13.20;100.00;100607.59;5008860;23;20114;-80
2022/12/31 10:18:52;;;;;;;3.97;1.15;;;;;;;13.43;100.00;100622.16;4956036;28;20058;-86
2022/12/31 10:21:49;;;;;;;4.68;1.30;;;;;;;13.18;100.00;100578.34;4952496;28;20039;-86
2022/12/31 10:24:26;;;;;;;5.47;1.65;;;;;;;13.48;100.00;100620.06;4936783;29;20084;-86
2022/12/31 10:26:57;;;;;;;7.97;1.40;;;;;;;13.51;100.00;100620.75;4936575;29;20031;-88
2022/12/31 10:29:29;;;;;;;3.35;1.13;;;;;;;13.47;100.00;100607.22;4936249;29;20032;-86
2022/12/31 10:32:00;;;;;;;5.65;1.27;;;;;;;13.49;100.00;100590.56;4936076;29;20024;-83
2022/12/31 10:34:38;;;;;;;5.65;2.00;;;;;;;13.58;100.00;100585.59;4935900;29;20039;-87
2022/12/31 10:37:09;;;;;;;7.20;1.48;;;;;;;13.68;100.00;100592.53;4935878;29;20043;-87
2022/12/31 10:39:44;;;;;;;;;;;;;;;13.77;100.00;100585.78;4936224;29;20067;-89
2022/12/31 10:42:12;;;;;;;5.07;1.38;;;;;;;13.85;100.00;100580.78;4936096;29;19942;-87
2022/12/31 10:45:14;;;;;;;4.97;1.42;;;;;;;13.94;100.00;100572.25;5109262;23;20075;-85
2022/12/31 10:48:01;;;;;;;5.68;1.60;;;;;;;14.01;100.00;100570.81;4956072;29;20058;-88
2022/12/31 10:50:47;;;;;;;7.45;1.73;;;;;;;14.07;100.00;100591.09;4956025;29;20058;-90
2022/12/31 10:53:18;;;;;;;8.00;1.60;;;;;;;14.09;100.00;100593.56;4955434;29;20150;-86
2022/12/31 10:56:21;;;;;;;3.80;1.38;;;;;;;14.12;100.00;100597.69;4955062;29;20109;-86
2022/12/31 10:59:24;;;;;;;7.13;1.42;;;;;;;14.13;100.00;100589.75;4955183;29;20035;-87
2022/12/31 11:02:18;;;;;;;3.42;1.30;;;;;;;14.15;100.00;100600.03;4954944;29;20038;-87
2022/12/31 11:05:17;;;;;;;5.88;1.58;;;;;;;14.24;100.00;100596.66;4895472;29;20074;-85
2022/12/31 11:07:58;;;;;;;5.18;1.27;;;;;;;14.33;100.00;100603.72;4895367;29;20040;-84
2022/12/31 11:11:00;;;;;;;4.55;1.30;;;;;;;14.39;100.00;100608.41;4895284;29;20652;-87
2022/12/31 11:13:42;;;;;;;7.30;1.60;;;;;;;14.43;100.00;100598.59;4894648;29;20068;-86
2022/12/31 11:16:07;;;;;;;8.68;1.40;;;;;;;14.48;100.00;100612.06;4895266;29;20051;-85
2022/12/31 11:19:11;;;;;;;4.88;1.30;;;;;;;14.52;100.00;100608.25;4895352;29;20073;-84
2022/12/31 11:21:51;;;;;;;6.75;1.65;;;;;;;14.63;100.00;100602.97;4858110;29;20050;-88
2022/12/31 11:24:20;;;;;;;5.00;1.40;;;;;;;14.65;100.00;100601.09;4857814;29;20553;-85
2022/12/31 11:27:13;;;;;;;8.15;1.90;;;;;;;14.39;100.00;100579.84;4858008;29;20089;-85
2022/12/31 11:30:02;;;;;;;4.47;1.38;;;;;;;14.63;100.00;100603.81;4858060;29;20498;-81
2022/12/31 11:32:52;;;;;;;4.88;1.30;;;;;;;14.66;100.00;100607.13;4842673;29;20041;-80
2022/12/31 11:35:33;;;;;;;7.55;1.70;;;;;;;14.68;100.00;100611.22;4842499;29;20041;-80
2022/12/31 11:38:14;;;;;;;;;;;;;;;14.74;100.00;100620.28;4858506;29;20048;-80
2022/12/31 11:40:47;;;;;;;6.30;1.85;;;;;;;14.62;100.00;100589.16;4863461;29;19915;-81
2022/12/31 11:43:31;;;;;;;8.45;1.75;;;;;;;14.78;100.00;100627.69;4894390;29;20039;-80
2022/12/31 11:46:15;;;;;;;6.55;1.25;;;;;;;14.60;100.00;100631.81;4895722;29;20052;-80
2022/12/31 11:49:07;;;;;;;5.68;1.77;;;;;;;14.51;100.00;100628.22;4895285;29;20060;-79
2022/12/31 11:51:48;;;;;;;5.47;1.38;;;;;;;14.53;100.00;100620.28;4895371;29;20048;-80
2022/12/31 11:54:44;;;;;;;6.13;2.47;;;;;;;14.52;100.00;100629.84;4894632;29;20157;-82
2022/12/31 11:57:21;;;;;;;7.60;2.67;;;;;;;14.45;100.00;100628.72;4895040;29;20508;-82
2022/12/31 11:59:57;;;;;;;7.00;2.83;;;;;;;14.28;100.00;100585.09;4954114;29;20150;-77
2022/12/31 12:02:27;;;;;;;4.38;1.70;;;;;;;14.19;100.00;100591.88;4954123;29;20039;-80
2022/12/31 12:04:54;;;;;;;5.20;1.77;;;;;;;14.38;100.00;100608.53;4953890;28;20027;-80
2022/12/31 12:07:20;;;;;;;9.35;1.80;;;;;;;14.51;100.00;100643.81;4953802;29;20038;-80
2022/12/31 12:09:46;;;;;;;6.03;1.70;;;;;;;14.41;100.00;100629.06;4953877;28;20027;-79
2022/12/31 12:12:12;;;;;;;7.10;2.10;;;;;;;14.26;100.00;100610.38;4954077;28;20071;-84
2022/12/31 12:14:39;;;;;;;6.68;1.85;;;;;;;14.40;100.00;100637.81;4953958;29;20471;-84
2022/12/31 12:17:08;;;;;;;6.22;1.50;;;;;;;14.30;100.00;100641.16;4953959;29;20031;-86
2022/12/31 12:19:40;;;;;;;8.30;1.60;;;;;;;14.01;100.00;100598.56;4954032;28;20039;-90
2022/12/31 12:22:27;;;;;;;8.18;2.30;;;;;;;14.07;100.00;100626.63;4953835;29;20035;-87
2022/12/31 12:24:56;;;;;;;6.45;2.28;;;;;;;13.85;100.00;100606.75;4955173;28;20027;-84
2022/12/31 12:27:27;;;;;;;6.75;2.30;;;;;;;13.63;100.00;100576.50;4957158;28;20039;-86
2022/12/31 12:29:52;;;;;;;11.07;2.27;;;;;;;13.95;100.00;100638.81;4957218;28;20050;-87
2022/12/31 12:32:24;;;;;;;7.35;2.53;;;;;;;13.80;100.00;100621.88;4957240;28;20031;-88
2022/12/31 12:34:50;;;;;;;8.23;2.75;;;;;;;13.76;100.00;100618.72;4957242;28;20426;-87
2022/12/31 12:37:36;;;;;;;7.53;2.90;;;;;;;13.87;100.00;100632.59;4957021;28;20057;-89
2022/12/31 12:40:05;;;;;;;14.07;6.28;;;;;;;13.91;100.00;100636.59;4956658;28;20035;-88
2022/12/31 12:42:31;;;;;;;6.20;2.63;;;;;;;13.89;100.00;100636.72;4956816;29;20046;-89